createdAt,value
2023-03-14T00:00:29.238Z,47.70
2023-03-14T00:01:29.212Z,53.25
2023-03-14T00:02:29.254Z,62.17
2023-03-14T00:03:29.282Z,60.98
2023-03-14T00:04:29.204Z,54.36
2023-03-14T00:05:29.194Z,55.32
2023-03-14T00:06:29.171Z,59.52
2023-03-14T00:07:29.175Z,54.61
2023-03-14T00:08:29.158Z,54.22
2023-03-14T00:09:29.151Z,59.95
2023-03-14T00:10:29.144Z,51.76
2023-03-14T00:11:29.142Z,58.17
2023-03-14T00:12:29.124Z,53.33
2023-03-14T00:13:29.120Z,45.78
2023-03-14T00:14:29.166Z,58.82
2023-03-14T00:15:29.096Z,49.47
2023-03-14T00:16:29.129Z,45.20
2023-03-14T00:17:29.102Z,46.01
2023-03-14T00:18:29.063Z,54.56
2023-03-14T00:19:29.077Z,47.90
2023-03-14T00:20:29.051Z,57.10
2023-03-14T00:21:29.056Z,45.84
2023-03-14T00:22:29.038Z,53.51
2023-03-14T00:25:18.571Z,55.93
2023-03-14T00:26:18.583Z,55.13
2023-03-14T00:27:18.573Z,48.23
2023-03-14T00:28:19.434Z,54.98
2023-03-14T00:29:18.540Z,48.48
2023-03-14T00:30:18.530Z,45.79
2023-03-14T00:31:18.613Z,44.86
2023-03-14T00:32:18.585Z,58.02
2023-03-14T00:33:19.447Z,59.81
2023-03-14T00:34:18.507Z,46.62
2023-03-14T00:35:18.502Z,46.98
2023-03-14T00:36:18.482Z,53.33
2023-03-14T00:37:18.472Z,51.33
2023-03-14T00:38:18.461Z,47.95
2023-03-14T00:39:18.458Z,55.47
2023-03-14T00:40:18.453Z,58.93
2023-03-14T00:41:19.555Z,55.92
2023-03-14T00:42:19.529Z,56.84
2023-03-14T00:43:19.521Z,45.49
2023-03-14T00:44:19.559Z,42.63
2023-03-14T00:45:19.500Z,51.77
2023-03-14T00:46:19.576Z,50.25
2023-03-14T00:47:19.520Z,57.68
2023-03-14T00:48:19.510Z,44.80
2023-03-14T00:49:19.478Z,42.84
2023-03-14T00:50:19.472Z,43.57
2023-03-14T00:51:19.477Z,53.97
2023-03-14T00:52:19.443Z,56.87
2023-03-14T00:53:19.449Z,44.94
2023-03-14T00:54:19.440Z,49.49
2023-03-14T00:55:19.440Z,59.72
2023-03-14T00:56:20.056Z,50.28
2023-03-14T00:57:19.415Z,49.65
2023-03-14T00:58:19.406Z,44.96
2023-03-14T00:59:19.396Z,48.40
2023-03-14T01:00:19.396Z,54.96
2023-03-14T01:01:19.398Z,45.14
2023-03-14T01:02:19.382Z,59.16
2023-03-14T01:03:19.359Z,55.87
2023-03-14T01:04:19.359Z,52.55
2023-03-14T01:05:19.352Z,54.02
2023-03-14T01:06:19.352Z,47.56
2023-03-14T01:07:19.349Z,44.49
2023-03-14T01:08:19.318Z,55.88
2023-03-14T01:09:19.326Z,49.56
2023-03-14T01:10:19.305Z,58.94
2023-03-14T01:11:19.315Z,44.22
2023-03-14T01:12:19.296Z,51.09
2023-03-14T01:13:20.041Z,52.85
2023-03-14T01:14:19.278Z,52.66
2023-03-14T01:15:19.293Z,58.58
2023-03-14T01:16:19.302Z,53.69
2023-03-14T01:17:19.277Z,58.79
2023-03-14T01:18:19.948Z,55.64
2023-03-14T01:19:19.952Z,47.10
2023-03-14T01:20:19.234Z,42.38
2023-03-14T01:21:19.248Z,51.56
2023-03-14T01:22:19.223Z,54.49
2023-03-14T01:23:19.221Z,51.21
2023-03-14T01:24:19.213Z,50.14
2023-03-14T01:25:19.203Z,50.09
2023-03-14T01:26:19.195Z,51.90
2023-03-14T01:27:19.187Z,54.01
2023-03-14T01:28:20.031Z,50.85
2023-03-14T01:29:20.163Z,56.21
2023-03-14T01:30:19.985Z,52.00
2023-03-14T01:31:19.198Z,56.04
2023-03-14T01:32:19.152Z,53.87
2023-03-14T01:33:19.140Z,52.67
2023-03-14T01:34:19.130Z,51.43
2023-03-14T01:35:19.118Z,59.37
2023-03-14T01:36:19.109Z,42.99
2023-03-14T01:37:19.131Z,43.72
2023-03-14T01:38:19.098Z,42.48
2023-03-14T01:39:19.114Z,55.42
2023-03-14T01:40:19.078Z,45.96
2023-03-14T01:41:19.076Z,43.70
2023-03-14T01:42:19.065Z,51.76
2023-03-14T01:43:19.054Z,58.89
2023-03-14T01:44:19.061Z,51.05
2023-03-14T01:45:19.044Z,51.11
2023-03-14T01:46:19.136Z,51.34
2023-03-14T01:47:19.028Z,56.20
2023-03-14T01:48:19.009Z,54.38
2023-03-14T01:49:18.994Z,52.01
2023-03-14T01:50:19.003Z,51.55
2023-03-14T01:51:18.999Z,54.03
2023-03-14T01:52:18.981Z,54.47
2023-03-14T01:53:18.960Z,42.14
2023-03-14T01:54:18.977Z,50.22
2023-03-14T01:55:18.970Z,60.42
2023-03-14T01:56:18.945Z,60.05
2023-03-14T01:57:18.939Z,45.48
2023-03-14T01:58:18.932Z,57.26
2023-03-14T01:59:18.923Z,58.12
2023-03-14T02:00:18.916Z,45.43
2023-03-14T02:01:18.941Z,41.20
2023-03-14T02:02:18.894Z,53.27
2023-03-14T02:03:18.945Z,44.62
2023-03-14T02:04:18.877Z,48.31
2023-03-14T02:05:18.871Z,57.23
2023-03-14T02:06:18.870Z,51.39
2023-03-14T02:07:18.842Z,53.48
2023-03-14T02:08:18.850Z,47.39
2023-03-14T02:09:18.861Z,48.96
2023-03-14T02:10:18.823Z,52.50
2023-03-14T02:11:18.817Z,45.50
2023-03-14T02:12:18.803Z,56.79
2023-03-14T02:13:18.830Z,49.08
2023-03-14T02:14:18.817Z,55.02
2023-03-14T02:15:18.792Z,51.11
2023-03-14T02:16:18.803Z,58.17
2023-03-14T02:17:18.763Z,60.75
2023-03-14T02:18:18.752Z,48.26
2023-03-14T02:19:18.759Z,43.03
2023-03-14T02:20:18.744Z,57.81
2023-03-14T02:21:18.749Z,52.77
2023-03-14T02:22:18.775Z,50.99
2023-03-14T02:23:18.717Z,46.94
2023-03-14T02:24:18.738Z,57.20
2023-03-14T02:25:18.691Z,48.32
2023-03-14T02:26:18.704Z,51.47
2023-03-14T02:27:18.689Z,53.28
2023-03-14T02:28:18.685Z,57.08
2023-03-14T02:29:18.689Z,55.87
2023-03-14T02:30:18.686Z,48.92
2023-03-14T02:31:18.683Z,56.69
2023-03-14T02:32:18.664Z,51.43
2023-03-14T02:33:20.013Z,53.57
2023-03-14T02:34:19.627Z,44.23
2023-03-14T02:35:19.057Z,50.02
2023-03-14T02:36:18.612Z,48.36
2023-03-14T02:37:18.620Z,44.81
2023-03-14T02:38:18.603Z,48.94
2023-03-14T02:39:19.470Z,52.71
2023-03-14T02:40:18.599Z,52.72
2023-03-14T02:41:18.565Z,57.75
2023-03-14T02:42:18.576Z,54.65
2023-03-14T02:43:18.561Z,51.53
2023-03-14T02:44:18.584Z,58.53
2023-03-14T02:45:18.548Z,53.87
2023-03-14T02:46:18.565Z,47.14
2023-03-14T02:47:18.532Z,46.12
2023-03-14T02:48:18.524Z,60.07
2023-03-14T02:49:18.519Z,52.13
2023-03-14T02:50:18.518Z,60.21
2023-03-14T02:51:18.488Z,50.19
2023-03-14T02:52:18.501Z,44.94
2023-03-14T02:53:18.485Z,47.67
2023-03-14T02:54:18.475Z,57.10
2023-03-14T02:55:18.458Z,49.37
2023-03-14T02:56:18.448Z,54.57
2023-03-14T02:57:18.466Z,58.18
2023-03-14T02:58:18.464Z,47.25
2023-03-14T02:59:18.438Z,52.79
2023-03-14T03:00:18.407Z,54.62
2023-03-14T03:01:18.469Z,49.03
2023-03-14T03:02:18.412Z,44.04
2023-03-14T03:03:18.442Z,55.74
2023-03-14T03:04:18.393Z,50.12
2023-03-14T03:05:18.373Z,51.76
2023-03-14T03:06:18.371Z,56.61
2023-03-14T03:07:18.370Z,50.53
2023-03-14T03:08:18.369Z,57.31
2023-03-14T03:09:18.352Z,54.23
2023-03-14T03:10:18.334Z,47.30
2023-03-14T03:11:18.335Z,51.94
2023-03-14T03:12:19.070Z,48.86
2023-03-14T03:13:18.318Z,49.34
2023-03-14T03:14:18.304Z,49.14
2023-03-14T03:15:18.302Z,57.99
2023-03-14T03:16:18.313Z,47.94
2023-03-14T03:17:18.276Z,47.47
2023-03-14T03:18:18.308Z,52.42
2023-03-14T03:19:18.256Z,43.25
2023-03-14T03:20:18.275Z,43.88
2023-03-14T03:21:18.251Z,45.45
2023-03-14T03:22:18.260Z,52.59
2023-03-14T03:23:18.252Z,47.03
2023-03-14T03:24:18.221Z,45.25
2023-03-14T03:25:18.243Z,48.85
2023-03-14T03:26:18.205Z,53.17
2023-03-14T03:27:18.206Z,46.15
2023-03-14T03:28:18.242Z,52.78
2023-03-14T03:29:18.208Z,55.51
2023-03-14T03:30:18.183Z,46.58
2023-03-14T03:31:18.231Z,57.17
2023-03-14T03:32:18.183Z,51.26
2023-03-14T03:33:18.193Z,53.13
2023-03-14T03:34:18.159Z,49.79
2023-03-14T03:35:18.145Z,44.75
2023-03-14T03:36:18.161Z,53.69
2023-03-14T03:37:18.123Z,59.48
2023-03-14T03:38:19.068Z,53.86
2023-03-14T03:39:18.115Z,51.66
2023-03-14T03:40:18.123Z,56.33
2023-03-14T03:41:18.098Z,50.78
2023-03-14T03:42:18.100Z,54.92
2023-03-14T03:43:18.086Z,50.05
2023-03-14T03:44:18.094Z,49.86
2023-03-14T03:45:18.076Z,55.43
2023-03-14T03:46:18.104Z,60.02
2023-03-14T03:47:18.068Z,56.58
2023-03-14T03:48:18.043Z,58.24
2023-03-14T03:49:18.049Z,58.81
2023-03-14T03:50:18.024Z,60.41
2023-03-14T03:51:18.039Z,56.60
2023-03-14T03:52:18.010Z,55.90
2023-03-14T03:53:32.293Z,55.24
2023-03-14T03:54:20.033Z,59.74
2023-03-14T03:55:17.987Z,57.23
2023-03-14T03:56:18.015Z,60.84
2023-03-14T03:57:17.975Z,62.17
2023-03-14T03:58:17.961Z,58.22
2023-03-14T03:59:17.954Z,60.97
2023-03-14T04:00:17.971Z,56.42
2023-03-14T04:01:17.946Z,60.03
2023-03-14T04:02:18.547Z,59.33
2023-03-14T04:03:17.930Z,54.81
2023-03-14T04:04:17.972Z,58.80
2023-03-14T04:05:17.917Z,57.39
2023-03-14T04:06:18.924Z,54.71
2023-03-14T04:07:17.891Z,59.63
2023-03-14T04:08:17.904Z,58.95
2023-03-14T04:09:17.899Z,59.49
2023-03-14T04:10:17.887Z,52.32
2023-03-14T04:11:18.298Z,61.11
2023-03-14T04:12:18.850Z,61.36
2023-03-14T04:13:17.836Z,60.82
2023-03-14T04:14:17.828Z,59.77
2023-03-14T04:15:17.849Z,61.62
2023-03-14T04:16:17.865Z,59.27
2023-03-14T04:17:17.818Z,62.59
2023-03-14T04:18:17.805Z,63.14
2023-03-14T04:19:17.799Z,61.12
2023-03-14T04:20:17.793Z,57.05
2023-03-14T04:21:17.776Z,57.68
2023-03-14T04:22:17.777Z,63.22
2023-03-14T04:23:17.781Z,61.07
2023-03-14T04:24:17.750Z,61.77
2023-03-14T04:25:17.842Z,57.75
2023-03-14T04:26:17.736Z,60.72
2023-03-14T04:27:17.750Z,52.07
2023-03-14T04:28:17.719Z,54.85
2023-03-14T04:29:17.711Z,58.83
2023-03-14T04:30:18.598Z,61.45
2023-03-14T04:31:17.794Z,62.41
2023-03-14T04:32:17.681Z,60.56
2023-03-14T04:33:17.674Z,58.02
2023-03-14T04:34:17.669Z,61.16
2023-03-14T04:35:17.659Z,61.17
2023-03-14T04:36:18.103Z,63.63
2023-03-14T04:37:17.653Z,60.69
2023-03-14T04:38:17.633Z,64.02
2023-03-14T04:39:17.628Z,64.84
2023-03-14T04:40:18.828Z,62.04
2023-03-14T04:41:18.615Z,58.52
2023-03-14T04:42:17.613Z,62.30
2023-03-14T04:43:17.597Z,57.98
2023-03-14T04:44:17.608Z,63.12
2023-03-14T04:45:17.576Z,61.34
2023-03-14T04:46:17.649Z,59.38
2023-03-14T04:47:17.564Z,60.11
2023-03-14T04:48:17.561Z,60.26
2023-03-14T04:49:17.556Z,60.73
2023-03-14T04:50:17.540Z,63.75
2023-03-14T04:51:17.556Z,63.92
2023-03-14T04:52:17.549Z,61.07
2023-03-14T04:53:17.526Z,61.49
2023-03-14T04:54:17.526Z,62.30
2023-03-14T04:55:18.011Z,61.41
2023-03-14T04:56:17.498Z,62.68
2023-03-14T04:57:17.505Z,60.90
2023-03-14T04:58:17.511Z,61.25
2023-03-14T04:59:17.514Z,62.19
2023-03-14T05:00:17.457Z,65.92
2023-03-14T05:01:17.452Z,58.83
2023-03-14T05:02:18.962Z,62.05
2023-03-14T05:03:18.185Z,64.82
2023-03-14T05:04:17.434Z,63.28
2023-03-14T05:05:17.417Z,63.87
2023-03-14T05:06:17.393Z,64.56
2023-03-14T05:07:18.416Z,62.65
2023-03-14T05:08:17.402Z,58.48
2023-03-14T05:09:17.394Z,61.34
2023-03-14T05:10:17.385Z,61.38
2023-03-14T05:11:17.375Z,60.75
2023-03-14T05:12:17.359Z,62.14
2023-03-14T05:13:17.358Z,61.98
2023-03-14T05:14:17.367Z,61.47
2023-03-14T05:15:17.345Z,64.35
2023-03-14T05:16:17.396Z,60.00
2023-03-14T05:17:17.307Z,56.66
2023-03-14T05:18:17.315Z,62.15
2023-03-14T05:19:17.297Z,65.78
2023-03-14T05:20:17.306Z,63.37
2023-03-14T05:21:17.303Z,63.48
2023-03-14T05:22:17.272Z,63.66
2023-03-14T05:23:17.262Z,63.05
2023-03-14T05:24:17.270Z,62.46
2023-03-14T05:25:17.264Z,63.91
2023-03-14T05:26:17.238Z,67.16
2023-03-14T05:27:17.247Z,64.75
2023-03-14T05:28:17.228Z,62.54
2023-03-14T05:29:18.006Z,62.84
2023-03-14T05:30:17.206Z,63.40
2023-03-14T05:31:17.213Z,64.37
2023-03-14T05:32:17.192Z,64.66
2023-03-14T05:33:17.183Z,63.60
2023-03-14T05:34:17.615Z,59.46
2023-03-14T05:35:17.173Z,64.69
2023-03-14T05:36:18.024Z,66.25
2023-03-14T05:37:18.983Z,65.14
2023-03-14T05:38:17.159Z,64.09
2023-03-14T05:39:17.188Z,62.87
2023-03-14T05:40:17.137Z,61.30
2023-03-14T05:41:17.137Z,63.64
2023-03-14T05:42:17.145Z,63.28
2023-03-14T05:43:17.160Z,63.52
2023-03-14T05:44:17.109Z,62.11
2023-03-14T05:45:17.113Z,64.80
2023-03-14T05:46:17.239Z,63.33
2023-03-14T05:47:17.089Z,64.64
2023-03-14T05:48:17.074Z,66.26
2023-03-14T05:49:17.095Z,64.93
2023-03-14T05:50:17.083Z,66.93
2023-03-14T05:51:18.014Z,66.42
2023-03-14T05:52:17.056Z,63.72
2023-03-14T05:53:17.054Z,65.10
2023-03-14T05:54:17.029Z,65.05
2023-03-14T05:55:17.051Z,64.23
2023-03-14T05:56:17.016Z,64.67
2023-03-14T05:57:17.019Z,65.15
2023-03-14T05:58:17.012Z,62.39
2023-03-14T05:59:17.000Z,65.07
2023-03-14T06:00:17.000Z,64.04
2023-03-14T06:01:16.980Z,67.73
2023-03-14T06:02:17.004Z,64.87
2023-03-14T06:03:17.018Z,65.32
2023-03-14T06:04:16.951Z,64.94
2023-03-14T06:05:16.964Z,68.42
2023-03-14T06:06:16.940Z,65.31
2023-03-14T06:07:16.940Z,64.14
2023-03-14T06:08:18.076Z,64.84
2023-03-14T06:09:17.939Z,64.80
2023-03-14T06:10:16.909Z,64.73
2023-03-14T06:11:16.909Z,64.21
2023-03-14T06:12:16.881Z,65.61
2023-03-14T06:13:16.888Z,65.93
2023-03-14T06:14:16.876Z,67.38
2023-03-14T06:15:17.617Z,69.14
2023-03-14T06:16:16.935Z,70.53
2023-03-14T06:17:16.844Z,68.04
2023-03-14T06:18:16.848Z,64.93
2023-03-14T06:19:16.821Z,66.67
2023-03-14T06:22:23.675Z,68.64
2023-03-14T06:23:23.690Z,67.46
2023-03-14T06:24:23.658Z,68.40
2023-03-14T06:25:23.659Z,67.80
2023-03-14T06:26:23.655Z,69.82
2023-03-14T06:27:23.633Z,66.26
2023-03-14T06:28:25.890Z,67.32
2023-03-14T06:29:23.627Z,65.20
2023-03-14T06:30:23.610Z,66.92
2023-03-14T06:31:23.606Z,66.69
2023-03-14T06:32:23.679Z,67.46
2023-03-14T06:33:24.701Z,67.48
2023-03-14T06:34:24.682Z,67.71
2023-03-14T06:35:24.672Z,67.92
2023-03-14T06:36:24.662Z,68.36
2023-03-14T06:37:24.652Z,68.78
2023-03-14T06:38:24.661Z,68.78
2023-03-14T06:39:24.644Z,66.03
2023-03-14T06:40:24.634Z,65.66
2023-03-14T06:41:24.637Z,67.73
2023-03-14T06:42:25.698Z,66.00
2023-03-14T06:43:24.624Z,66.11
2023-03-14T06:44:24.628Z,66.04
2023-03-14T06:45:24.641Z,65.46
2023-03-14T06:46:24.649Z,66.91
2023-03-14T06:47:25.668Z,64.46
2023-03-14T06:48:24.583Z,64.75
2023-03-14T06:49:25.553Z,65.50
2023-03-14T06:50:24.562Z,66.34
2023-03-14T06:51:24.579Z,65.84
2023-03-14T06:52:24.577Z,67.27
2023-03-14T06:53:25.134Z,66.28
2023-03-14T06:54:24.562Z,67.81
2023-03-14T06:55:24.519Z,67.15
2023-03-14T06:56:24.512Z,68.00
2023-03-14T06:57:24.492Z,67.92
2023-03-14T06:58:24.494Z,69.13
2023-03-14T06:59:24.490Z,65.95
2023-03-14T07:00:24.502Z,68.48
2023-03-14T07:01:24.569Z,67.42
2023-03-14T07:02:35.987Z,69.09
2023-03-14T07:03:26.457Z,69.15
2023-03-14T07:04:24.444Z,67.82
2023-03-14T07:05:24.437Z,68.94
2023-03-14T07:06:24.465Z,67.90
2023-03-14T07:07:24.439Z,70.79
2023-03-14T07:08:24.427Z,68.21
2023-03-14T07:09:24.443Z,65.76
2023-03-14T07:10:24.401Z,64.92
2023-03-14T07:11:24.402Z,64.92
2023-03-14T07:12:24.405Z,64.56
2023-03-14T07:13:24.394Z,64.73
2023-03-14T07:14:24.376Z,63.85
2023-03-14T07:15:24.360Z,64.74
2023-03-14T07:16:24.350Z,64.12
2023-03-14T07:17:24.338Z,65.58
2023-03-14T07:18:24.437Z,66.11
2023-03-14T07:19:24.328Z,64.77
2023-03-14T07:20:24.311Z,65.93
2023-03-14T07:21:24.319Z,65.09
2023-03-14T07:22:24.295Z,66.95
2023-03-14T07:23:24.324Z,63.90
2023-03-14T07:24:24.300Z,64.48
2023-03-14T07:25:24.260Z,66.88
2023-03-14T07:26:24.263Z,65.32
2023-03-14T07:27:24.268Z,66.87
2023-03-14T07:28:24.276Z,64.95
2023-03-14T07:29:24.255Z,65.12
2023-03-14T07:30:24.276Z,66.32
2023-03-14T07:31:24.292Z,72.21
2023-03-14T07:32:25.125Z,67.79
2023-03-14T07:33:24.219Z,65.09
2023-03-14T07:34:24.201Z,63.85
2023-03-14T07:35:24.204Z,65.65
2023-03-14T07:36:24.176Z,67.95
2023-03-14T07:37:24.186Z,66.09
2023-03-14T07:38:24.233Z,66.74
2023-03-14T07:39:24.161Z,64.90
2023-03-14T07:40:24.157Z,62.87
2023-03-14T07:41:24.180Z,63.62
2023-03-14T07:42:25.033Z,64.06
2023-03-14T07:43:25.098Z,63.87
2023-03-14T07:44:24.126Z,64.56
2023-03-14T07:45:25.187Z,65.27
2023-03-14T07:46:25.142Z,65.29
2023-03-14T07:47:25.070Z,65.25
2023-03-14T07:48:25.131Z,64.39
2023-03-14T07:49:24.085Z,65.21
2023-03-14T07:50:24.073Z,65.47
2023-03-14T07:51:24.133Z,65.06
2023-03-14T07:52:24.061Z,65.30
2023-03-14T07:53:24.070Z,65.09
2023-03-14T07:54:24.067Z,67.18
2023-03-14T07:55:24.021Z,66.66
2023-03-14T07:56:24.026Z,66.00
2023-03-14T07:57:24.035Z,66.08
2023-03-14T07:58:24.013Z,64.58
2023-03-14T07:59:24.072Z,63.06
2023-03-14T08:00:24.592Z,64.87
2023-03-14T08:01:23.976Z,65.40
2023-03-14T08:02:24.103Z,65.52
2023-03-14T08:03:23.985Z,66.06
2023-03-14T08:04:23.979Z,63.90
2023-03-14T08:05:24.528Z,64.53
2023-03-14T08:06:23.942Z,66.26
2023-03-14T08:07:23.954Z,66.32
2023-03-14T08:08:23.921Z,64.74
2023-03-14T08:09:23.924Z,64.55
2023-03-14T08:10:23.955Z,64.52
2023-03-14T08:11:23.887Z,64.24
2023-03-14T08:12:23.949Z,64.72
2023-03-14T08:13:23.954Z,63.88
2023-03-14T08:14:23.873Z,65.08
2023-03-14T08:15:23.865Z,63.75
2023-03-14T08:16:23.950Z,64.67
2023-03-14T08:17:24.900Z,66.14
2023-03-14T08:18:24.532Z,63.99
2023-03-14T08:19:23.842Z,66.20
2023-03-14T08:20:23.847Z,67.51
2023-03-14T08:21:23.877Z,64.71
2023-03-14T08:22:23.810Z,62.90
2023-03-14T08:23:23.811Z,66.04
2023-03-14T08:24:23.814Z,65.81
2023-03-14T08:25:23.863Z,64.09
2023-03-14T08:26:23.802Z,65.29
2023-03-14T08:27:23.807Z,65.05
2023-03-14T08:28:23.787Z,64.11
2023-03-14T08:29:23.761Z,64.83
2023-03-14T08:30:23.812Z,65.84
2023-03-14T08:31:24.908Z,64.50
2023-03-14T08:32:23.813Z,63.86
2023-03-14T08:33:23.753Z,64.76
2023-03-14T08:34:23.793Z,63.93
2023-03-14T08:35:23.723Z,65.26
2023-03-14T08:36:24.289Z,66.26
2023-03-14T08:37:27.011Z,66.91
2023-03-14T08:38:24.705Z,65.98
2023-03-14T08:39:23.808Z,64.94
2023-03-14T08:40:23.728Z,64.41
2023-03-14T08:41:23.656Z,66.14
2023-03-14T08:42:23.664Z,64.78
2023-03-14T08:43:23.621Z,63.81
2023-03-14T08:44:23.687Z,64.60
2023-03-14T08:45:23.682Z,65.23
2023-03-14T08:46:24.631Z,64.08
2023-03-14T08:47:24.175Z,64.15
2023-03-14T08:48:24.604Z,64.94
2023-03-14T08:49:23.680Z,65.59
2023-03-14T08:50:23.695Z,63.53
2023-03-14T08:51:23.578Z,65.15
2023-03-14T08:52:23.574Z,63.86
2023-03-14T08:53:23.592Z,65.77
2023-03-14T08:54:23.567Z,66.19
2023-03-14T08:55:23.646Z,66.36
2023-03-14T08:56:25.945Z,65.56
2023-03-14T08:57:24.551Z,64.06
2023-03-14T08:58:23.528Z,65.67
2023-03-14T08:59:23.565Z,66.63
2023-03-14T09:00:23.635Z,66.08
2023-03-14T09:01:23.530Z,64.68
2023-03-14T09:02:23.481Z,66.62
2023-03-14T09:03:23.558Z,68.70
2023-03-14T09:04:23.527Z,64.24
2023-03-14T09:05:23.455Z,64.58
2023-03-14T09:06:23.482Z,64.94
2023-03-14T09:07:23.490Z,64.96
2023-03-14T09:08:23.476Z,64.93
2023-03-14T09:09:23.519Z,66.81
2023-03-14T09:10:23.539Z,65.49
2023-03-14T09:11:23.536Z,66.94
2023-03-14T09:12:23.401Z,66.65
2023-03-14T09:13:23.410Z,64.61
2023-03-14T09:14:23.387Z,65.86
2023-03-14T09:15:23.395Z,64.88
2023-03-14T09:16:23.421Z,64.92
2023-03-14T09:17:23.402Z,66.49
2023-03-14T09:18:23.359Z,65.93
2023-03-14T09:19:23.361Z,65.53
2023-03-14T09:20:23.362Z,67.27
2023-03-14T09:21:23.503Z,67.51
2023-03-14T09:22:24.502Z,64.14
2023-03-14T09:23:23.371Z,65.86
2023-03-14T09:24:24.109Z,65.86
2023-03-14T09:25:23.298Z,66.56
2023-03-14T09:26:23.297Z,67.02
2023-03-14T09:27:23.333Z,68.92
2023-03-14T09:28:23.296Z,68.21
2023-03-14T09:29:23.338Z,68.04
2023-03-14T09:30:23.306Z,68.21
2023-03-14T09:31:23.296Z,67.38
2023-03-14T09:32:23.397Z,66.33
2023-03-14T09:33:23.263Z,65.76
2023-03-14T09:34:23.258Z,66.57
2023-03-14T09:35:23.260Z,67.12
2023-03-14T09:36:23.239Z,67.55
2023-03-14T09:37:23.222Z,66.57
2023-03-14T09:38:23.213Z,64.98
2023-03-14T09:39:23.221Z,65.92
2023-03-14T09:40:23.187Z,64.91
2023-03-14T09:41:23.228Z,64.59
2023-03-14T09:42:23.193Z,65.48
2023-03-14T09:43:23.171Z,64.15
2023-03-14T09:44:23.141Z,65.24
2023-03-14T09:45:23.774Z,63.85
2023-03-14T09:46:24.185Z,62.17
2023-03-14T09:47:23.124Z,65.88
2023-03-14T09:48:23.126Z,66.58
2023-03-14T09:49:23.129Z,66.36
2023-03-14T09:50:23.119Z,65.33
2023-03-14T09:51:24.744Z,65.25
2023-03-14T09:52:24.110Z,64.57
2023-03-14T09:53:23.085Z,66.04
2023-03-14T09:54:23.598Z,66.87
2023-03-14T09:55:23.064Z,65.24
2023-03-14T09:56:23.041Z,65.59
2023-03-14T09:57:23.060Z,65.37
2023-03-14T09:58:24.107Z,66.46
2023-03-14T09:59:23.074Z,68.11
2023-03-14T10:00:23.117Z,65.96
2023-03-14T10:01:24.065Z,68.38
2023-03-14T10:02:23.006Z,63.77
2023-03-14T10:03:23.008Z,65.74
2023-03-14T10:04:23.001Z,66.03
2023-03-14T10:05:22.995Z,64.93
2023-03-14T10:06:23.563Z,67.35
2023-03-14T10:07:23.020Z,66.00
2023-03-14T10:08:23.691Z,63.25
2023-03-14T10:09:23.608Z,65.04
2023-03-14T10:10:22.980Z,66.63
2023-03-14T10:11:22.945Z,63.92
2023-03-14T10:12:23.021Z,65.90
2023-03-14T10:13:22.903Z,63.33
2023-03-14T10:14:22.898Z,65.36
2023-03-14T10:15:22.884Z,65.44
2023-03-14T10:16:22.909Z,64.62
2023-03-14T10:17:23.697Z,67.85
2023-03-14T10:18:22.898Z,64.96
2023-03-14T10:19:22.860Z,64.04
2023-03-14T10:20:22.872Z,67.83
2023-03-14T10:21:22.872Z,66.99
2023-03-14T10:22:22.855Z,64.79
2023-03-14T10:23:22.884Z,64.73
2023-03-14T10:24:22.839Z,65.83
2023-03-14T10:25:22.814Z,66.22
2023-03-14T10:26:23.209Z,65.41
2023-03-14T10:27:22.821Z,65.73
2023-03-14T10:28:22.816Z,65.88
2023-03-14T10:29:24.669Z,66.98
2023-03-14T10:30:22.880Z,67.53
2023-03-14T10:31:23.609Z,65.98
2023-03-14T10:32:22.849Z,63.47
2023-03-14T10:33:22.761Z,65.35
2023-03-14T10:34:22.769Z,64.80
2023-03-14T10:35:22.741Z,66.50
2023-03-14T10:36:22.847Z,66.54
2023-03-14T10:37:22.711Z,65.73
2023-03-14T10:38:22.749Z,64.99
2023-03-14T10:39:22.684Z,65.57
2023-03-14T10:40:23.752Z,66.90
2023-03-14T10:41:22.708Z,63.82
2023-03-14T10:42:22.766Z,64.23
2023-03-14T10:43:22.682Z,64.95
2023-03-14T10:44:22.654Z,63.02
2023-03-14T10:45:22.662Z,64.17
2023-03-14T10:46:22.706Z,64.24
2023-03-14T10:47:22.645Z,69.06
2023-03-14T10:48:22.678Z,63.34
2023-03-14T10:49:22.652Z,65.00
2023-03-14T10:50:22.650Z,66.87
2023-03-14T10:51:22.621Z,63.66
2023-03-14T10:52:26.376Z,65.37
2023-03-14T10:53:26.520Z,64.85
2023-03-14T10:54:23.572Z,66.22
2023-03-14T10:55:22.608Z,64.66
2023-03-14T10:56:22.609Z,67.26
2023-03-14T10:57:22.572Z,65.46
2023-03-14T10:58:22.588Z,65.46
2023-03-14T10:59:22.560Z,63.85
2023-03-14T11:00:22.564Z,66.51
2023-03-14T11:01:22.547Z,73.12
2023-03-14T11:02:23.214Z,66.03
2023-03-14T11:03:22.508Z,68.87
2023-03-14T11:04:23.292Z,66.14
2023-03-14T11:05:22.506Z,66.81
2023-03-14T11:06:22.524Z,64.90
2023-03-14T11:07:22.523Z,66.33
2023-03-14T11:08:22.466Z,65.13
2023-03-14T11:09:23.133Z,64.26
2023-03-14T11:10:22.513Z,64.86
2023-03-14T11:11:22.481Z,64.77
2023-03-14T11:12:22.445Z,66.71
2023-03-14T11:13:23.126Z,67.79
2023-03-14T11:14:23.997Z,66.84
2023-03-14T11:15:22.446Z,68.81
2023-03-14T11:16:23.781Z,66.51
2023-03-14T11:17:22.416Z,68.17
2023-03-14T11:18:22.422Z,67.99
2023-03-14T11:19:22.504Z,70.23
2023-03-14T11:20:22.370Z,66.57
2023-03-14T11:21:22.362Z,66.72
2023-03-14T11:22:22.348Z,65.61
2023-03-14T11:23:22.759Z,67.48
2023-03-14T11:24:22.461Z,66.63
2023-03-14T11:25:22.397Z,69.16
2023-03-14T11:26:22.316Z,68.41
2023-03-14T11:27:22.317Z,69.43
2023-03-14T11:28:23.110Z,68.53
2023-03-14T11:29:22.289Z,67.36
2023-03-14T11:30:22.298Z,66.08
2023-03-14T11:31:22.333Z,67.38
2023-03-14T11:32:27.174Z,66.87
2023-03-14T11:33:23.135Z,66.83
2023-03-14T11:34:25.419Z,64.54
2023-03-14T11:35:23.281Z,65.56
2023-03-14T11:36:24.091Z,65.53
2023-03-14T11:37:22.273Z,68.42
2023-03-14T11:38:22.249Z,66.33
2023-03-14T11:39:22.220Z,66.68
2023-03-14T11:40:22.221Z,66.54
2023-03-14T11:41:22.211Z,65.38
2023-03-14T11:42:23.233Z,66.49
2023-03-14T11:43:23.130Z,64.15
2023-03-14T11:44:23.109Z,66.18
2023-03-14T11:45:22.297Z,66.88
2023-03-14T11:46:22.300Z,65.05
2023-03-14T11:47:22.153Z,64.59
2023-03-14T11:48:22.161Z,68.25
2023-03-14T11:49:22.188Z,63.12
2023-03-14T11:50:22.174Z,66.17
2023-03-14T11:51:22.237Z,66.58
2023-03-14T11:52:22.540Z,67.44
2023-03-14T11:53:22.645Z,64.48
2023-03-14T11:54:23.874Z,66.83
2023-03-14T11:55:22.108Z,65.77
2023-03-14T11:56:22.580Z,67.19
2023-03-14T11:57:22.116Z,65.56
2023-03-14T11:58:22.284Z,66.46
2023-03-14T11:59:24.152Z,67.05
2023-03-14T12:00:23.612Z,66.41
2023-03-14T12:01:22.137Z,67.10
2023-03-14T12:02:22.118Z,66.95
2023-03-14T12:03:22.028Z,69.07
2023-03-14T12:04:24.277Z,67.14
2023-03-14T12:05:22.033Z,65.51
2023-03-14T12:06:22.839Z,66.92
2023-03-14T12:07:22.020Z,63.83
2023-03-14T12:08:22.016Z,68.20
2023-03-14T12:09:21.983Z,64.59
2023-03-14T12:10:21.970Z,67.99
2023-03-14T12:11:22.006Z,69.88
2023-03-14T12:12:21.948Z,66.96
2023-03-14T12:13:22.265Z,65.75
2023-03-14T12:14:22.757Z,67.56
2023-03-14T12:15:21.933Z,68.98
2023-03-14T12:16:21.981Z,68.46
2023-03-14T12:17:21.915Z,70.28
2023-03-14T12:18:21.904Z,69.32
2023-03-14T12:19:22.915Z,71.58
2023-03-14T12:20:22.617Z,71.41
2023-03-14T12:21:21.960Z,70.56
2023-03-14T12:22:21.869Z,72.13
2023-03-14T12:23:21.959Z,68.99
2023-03-14T12:24:21.842Z,68.89
2023-03-14T12:25:21.925Z,70.00
2023-03-14T12:26:21.845Z,68.84
2023-03-14T12:27:21.929Z,68.74
2023-03-14T12:28:21.874Z,66.82
2023-03-14T12:29:22.779Z,67.93
2023-03-14T12:30:21.889Z,69.43
2023-03-14T12:31:21.874Z,69.15
2023-03-14T12:32:21.816Z,69.83
2023-03-14T12:33:21.837Z,67.88
2023-03-14T12:34:22.257Z,67.47
2023-03-14T12:35:22.760Z,69.12
2023-03-14T12:36:21.778Z,71.31
2023-03-14T12:37:21.762Z,69.32
2023-03-14T12:38:21.726Z,67.88
2023-03-14T12:39:22.666Z,69.05
2023-03-14T12:40:21.753Z,67.75
2023-03-14T12:41:21.726Z,71.47
2023-03-14T12:42:21.934Z,68.15
2023-03-14T12:43:22.605Z,68.50
2023-03-14T12:44:21.745Z,70.91
2023-03-14T12:45:22.663Z,69.51
2023-03-14T12:46:21.694Z,70.62
2023-03-14T12:47:22.646Z,70.67
2023-03-14T12:48:21.764Z,70.63
2023-03-14T12:49:22.243Z,66.99
2023-03-14T12:50:21.710Z,70.23
2023-03-14T12:51:21.644Z,71.32
2023-03-14T12:52:21.637Z,71.31
2023-03-14T12:53:21.622Z,70.36
2023-03-14T12:54:21.610Z,71.60
2023-03-14T12:55:21.613Z,68.53
2023-03-14T12:56:22.402Z,70.66